sensor_id;sensor_type;location;lat;lon;timestamp;pressure;altitude;pressure_sealevel;temperature;humidity
18569;BME280;14780;48.316;-1.050;2023-06-19T00:01:56;98639.00;;;27.94;43.62
18569;BME280;14780;48.316;-1.050;2023-06-19T00:04:40;98628.00;;;27.94;43.85
18569;BME280;14780;48.316;-1.050;2023-06-19T00:07:25;98626.38;;;27.93;43.73
18569;BME280;14780;48.316;-1.050;2023-06-19T00:10:10;98631.38;;;27.91;43.79
18569;BME280;14780;48.316;-1.050;2023-06-19T00:12:55;98628.94;;;27.89;43.67
18569;BME280;14780;48.316;-1.050;2023-06-19T00:15:39;98627.31;;;27.88;43.62
18569;BME280;14780;48.316;-1.050;2023-06-19T00:18:24;98627.94;;;27.85;43.72
18569;BME280;14780;48.316;-1.050;2023-06-19T00:21:09;98632.09;;;27.83;43.58
18569;BME280;14780;48.316;-1.050;2023-06-19T00:23:54;98624.97;;;27.82;43.69
18569;BME280;14780;48.316;-1.050;2023-06-19T00:26:39;98636.28;;;27.80;43.43
18569;BME280;14780;48.316;-1.050;2023-06-19T00:29:24;98634.97;;;27.78;43.48
18569;BME280;14780;48.316;-1.050;2023-06-19T00:32:12;98638.03;;;27.76;43.75
18569;BME280;14780;48.316;-1.050;2023-06-19T00:34:57;98644.63;;;27.75;43.63
18569;BME280;14780;48.316;-1.050;2023-06-19T00:37:42;98638.28;;;27.75;43.70
18569;BME280;14780;48.316;-1.050;2023-06-19T00:40:32;98635.84;;;27.73;43.62
18569;BME280;14780;48.316;-1.050;2023-06-19T00:43:17;98636.97;;;27.72;43.75
18569;BME280;14780;48.316;-1.050;2023-06-19T00:46:02;98641.69;;;27.72;43.39
18569;BME280;14780;48.316;-1.050;2023-06-19T00:48:48;98649.09;;;27.71;43.72
18569;BME280;14780;48.316;-1.050;2023-06-19T00:51:33;98652.69;;;27.72;43.42
18569;BME280;14780;48.316;-1.050;2023-06-19T00:54:18;98650.53;;;27.69;43.46
18569;BME280;14780;48.316;-1.050;2023-06-19T00:57:03;98660.38;;;27.70;43.55
18569;BME280;14780;48.316;-1.050;2023-06-19T00:59:48;98652.97;;;27.70;43.43
18569;BME280;14780;48.316;-1.050;2023-06-19T01:02:34;98652.97;;;27.70;43.57
18569;BME280;14780;48.316;-1.050;2023-06-19T01:05:19;98651.84;;;27.71;43.68
18569;BME280;14780;48.316;-1.050;2023-06-19T01:11:23;98672.50;;;27.69;43.49
18569;BME280;14780;48.316;-1.050;2023-06-19T01:14:14;98673.94;;;27.66;43.56
18569;BME280;14780;48.316;-1.050;2023-06-19T01:17:00;98682.19;;;27.66;43.55
18569;BME280;14780;48.316;-1.050;2023-06-19T01:19:45;98689.63;;;27.66;43.56
18569;BME280;14780;48.316;-1.050;2023-06-19T01:22:30;98694.31;;;27.65;43.59
18569;BME280;14780;48.316;-1.050;2023-06-19T01:25:16;98687.19;;;27.64;43.56
18569;BME280;14780;48.316;-1.050;2023-06-19T01:28:04;98695.44;;;27.64;43.53
18569;BME280;14780;48.316;-1.050;2023-06-19T01:30:50;98698.16;;;27.64;43.38
18569;BME280;14780;48.316;-1.050;2023-06-19T01:33:37;98704.50;;;27.65;43.46
18569;BME280;14780;48.316;-1.050;2023-06-19T01:36:24;98700.13;;;27.64;43.64
18569;BME280;14780;48.316;-1.050;2023-06-19T01:39:09;98705.91;;;27.62;43.59
18569;BME280;14780;48.316;-1.050;2023-06-19T01:41:55;98703.97;;;27.63;43.55
18569;BME280;14780;48.316;-1.050;2023-06-19T01:44:41;98699.59;;;27.62;43.56
18569;BME280;14780;48.316;-1.050;2023-06-19T01:47:26;98702.66;;;27.60;43.70
18569;BME280;14780;48.316;-1.050;2023-06-19T01:50:11;98696.34;;;27.60;43.37
18569;BME280;14780;48.316;-1.050;2023-06-19T01:52:56;98695.84;;;27.58;43.58
18569;BME280;14780;48.316;-1.050;2023-06-19T01:55:42;98698.38;;;27.54;43.44
18569;BME280;14780;48.316;-1.050;2023-06-19T01:58:26;98686.56;;;27.54;43.53
18569;BME280;14780;48.316;-1.050;2023-06-19T02:01:11;98694.31;;;27.52;43.48
18569;BME280;14780;48.316;-1.050;2023-06-19T02:03:56;98694.03;;;27.53;43.48
18569;BME280;14780;48.316;-1.050;2023-06-19T02:06:40;98680.88;;;27.50;43.56
18569;BME280;14780;48.316;-1.050;2023-06-19T02:09:26;98676.50;;;27.49;43.54
18569;BME280;14780;48.316;-1.050;2023-06-19T02:12:10;98668.25;;;27.49;43.52
18569;BME280;14780;48.316;-1.050;2023-06-19T02:14:55;98671.31;;;27.48;43.52
18569;BME280;14780;48.316;-1.050;2023-06-19T02:17:39;98672.44;;;27.47;43.27
18569;BME280;14780;48.316;-1.050;2023-06-19T02:20:27;98667.25;;;27.45;43.53
18569;BME280;14780;48.316;-1.050;2023-06-19T02:23:11;98664.19;;;27.47;43.57
18569;BME280;14780;48.316;-1.050;2023-06-19T02:25:56;98665.59;;;27.44;43.43
18569;BME280;14780;48.316;-1.050;2023-06-19T02:28:40;98661.75;;;27.45;43.29
18569;BME280;14780;48.316;-1.050;2023-06-19T02:31:25;98660.09;;;27.44;43.31
18569;BME280;14780;48.316;-1.050;2023-06-19T02:34:10;98653.00;;;27.43;43.33
18569;BME280;14780;48.316;-1.050;2023-06-19T02:36:55;98651.06;;;27.44;43.32
18569;BME280;14780;48.316;-1.050;2023-06-19T02:39:39;98658.47;;;27.43;43.45
18569;BME280;14780;48.316;-1.050;2023-06-19T02:42:24;98656.84;;;27.42;43.34
18569;BME280;14780;48.316;-1.050;2023-06-19T02:45:09;98656.84;;;27.42;43.54
18569;BME280;14780;48.316;-1.050;2023-06-19T02:47:54;98651.38;;;27.42;43.43
18569;BME280;14780;48.316;-1.050;2023-06-19T02:50:39;98660.44;;;27.43;43.51
18569;BME280;14780;48.316;-1.050;2023-06-19T02:53:24;98649.75;;;27.41;43.47
18569;BME280;14780;48.316;-1.050;2023-06-19T02:56:09;98653.63;;;27.40;43.21
18569;BME280;14780;48.316;-1.050;2023-06-19T02:58:54;98648.72;;;27.37;43.35
18569;BME280;14780;48.316;-1.050;2023-06-19T03:01:38;98658.06;;;27.36;43.43
18569;BME280;14780;48.316;-1.050;2023-06-19T03:04:23;98652.91;;;27.35;43.25
18569;BME280;14780;48.316;-1.050;2023-06-19T03:07:08;98652.09;;;27.34;43.33
18569;BME280;14780;48.316;-1.050;2023-06-19T03:09:52;98646.59;;;27.34;43.42
18569;BME280;14780;48.316;-1.050;2023-06-19T03:12:37;98653.22;;;27.33;43.55
18569;BME280;14780;48.316;-1.050;2023-06-19T03:15:22;98657.06;;;27.32;43.50
18569;BME280;14780;48.316;-1.050;2023-06-19T03:18:06;98650.75;;;27.32;43.47
18569;BME280;14780;48.316;-1.050;2023-06-19T03:20:53;98648.31;;;27.30;43.56
18569;BME280;14780;48.316;-1.050;2023-06-19T03:23:39;98646.38;;;27.31;43.59
18569;BME280;14780;48.316;-1.050;2023-06-19T03:26:26;98643.94;;;27.29;43.36
18569;BME280;14780;48.316;-1.050;2023-06-19T03:29:11;98648.31;;;27.30;43.43
18569;BME280;14780;48.316;-1.050;2023-06-19T03:31:56;98639.25;;;27.30;43.51
18569;BME280;14780;48.316;-1.050;2023-06-19T03:34:41;98642.31;;;27.28;43.64
18569;BME280;14780;48.316;-1.050;2023-06-19T03:37:26;98635.69;;;27.29;43.54
18569;BME280;14780;48.316;-1.050;2023-06-19T03:40:11;98632.94;;;27.29;43.54
18569;BME280;14780;48.316;-1.050;2023-06-19T03:42:58;98630.19;;;27.29;43.39
18569;BME280;14780;48.316;-1.050;2023-06-19T03:45:42;98630.00;;;27.26;43.57
18569;BME280;14780;48.316;-1.050;2023-06-19T03:48:27;98634.69;;;27.25;43.40
18569;BME280;14780;48.316;-1.050;2023-06-19T03:51:12;98640.19;;;27.25;43.49
18569;BME280;14780;48.316;-1.050;2023-06-19T03:53:57;98640.19;;;27.25;43.62
18569;BME280;14780;48.316;-1.050;2023-06-19T03:56:41;98644.06;;;27.24;43.65
18569;BME280;14780;48.316;-1.050;2023-06-19T03:59:26;98639.34;;;27.25;43.52
18569;BME280;14780;48.316;-1.050;2023-06-19T04:02:11;98639.34;;;27.25;43.48
18569;BME280;14780;48.316;-1.050;2023-06-19T04:04:55;98646.81;;;27.24;43.67
18569;BME280;14780;48.316;-1.050;2023-06-19T04:07:40;98649.84;;;27.23;43.61
18569;BME280;14780;48.316;-1.050;2023-06-19T04:10:25;98644.34;;;27.23;43.56
18569;BME280;14780;48.316;-1.050;2023-06-19T04:13:10;98647.94;;;27.23;43.75
18569;BME280;14780;48.316;-1.050;2023-06-19T04:15:54;98655.34;;;27.23;43.70
18569;BME280;14780;48.316;-1.050;2023-06-19T04:18:39;98651.75;;;27.22;43.75
18569;BME280;14780;48.316;-1.050;2023-06-19T04:21:23;98641.59;;;27.23;43.64
18569;BME280;14780;48.316;-1.050;2023-06-19T04:24:09;98646.28;;;27.22;43.65
18569;BME280;14780;48.316;-1.050;2023-06-19T04:26:53;98640.78;;;27.22;43.68
18569;BME280;14780;48.316;-1.050;2023-06-19T04:29:38;98641.91;;;27.21;43.66
18569;BME280;14780;48.316;-1.050;2023-06-19T04:32:22;98647.41;;;27.21;43.76
18569;BME280;14780;48.316;-1.050;2023-06-19T04:35:08;98641.41;;;27.19;43.65
18569;BME280;14780;48.316;-1.050;2023-06-19T04:37:53;98652.88;;;27.21;43.76
18569;BME280;14780;48.316;-1.050;2023-06-19T04:40:38;98646.88;;;27.19;43.83
18569;BME280;14780;48.316;-1.050;2023-06-19T04:43:23;98647.72;;;27.20;43.55
18569;BME280;14780;48.316;-1.050;2023-06-19T04:46:09;98648.81;;;27.19;43.80
18569;BME280;14780;48.316;-1.050;2023-06-19T04:48:53;98653.50;;;27.18;43.92
18569;BME280;14780;48.316;-1.050;2023-06-19T04:51:39;98650.75;;;27.18;43.81
18569;BME280;14780;48.316;-1.050;2023-06-19T04:54:25;98657.38;;;27.17;43.91
18569;BME280;14780;48.316;-1.050;2023-06-19T04:57:10;98657.38;;;27.17;43.65
18569;BME280;14780;48.316;-1.050;2023-06-19T04:59:55;98652.19;;;27.16;43.76
18569;BME280;14780;48.316;-1.050;2023-06-19T05:02:40;98658.50;;;27.16;43.71
18569;BME280;14780;48.316;-1.050;2023-06-19T05:05:28;98660.41;;;27.16;43.85
18569;BME280;14780;48.316;-1.050;2023-06-19T05:08:13;98656.84;;;27.15;43.71
18569;BME280;14780;48.316;-1.050;2023-06-19T05:10:58;98665.09;;;27.15;43.70
18569;BME280;14780;48.316;-1.050;2023-06-19T05:13:43;98665.63;;;27.17;43.90
18569;BME280;14780;48.316;-1.050;2023-06-19T05:16:28;98657.66;;;27.16;43.92
18569;BME280;14780;48.316;-1.050;2023-06-19T05:19:13;98667.53;;;27.17;43.99
18569;BME280;14780;48.316;-1.050;2023-06-19T05:21:58;98665.63;;;27.17;43.97
18569;BME280;14780;48.316;-1.050;2023-06-19T05:24:42;98667.81;;;27.15;43.85
18569;BME280;14780;48.316;-1.050;2023-06-19T05:27:27;98666.19;;;27.14;44.05
18569;BME280;14780;48.316;-1.050;2023-06-19T05:30:12;98661.53;;;27.15;43.87
18569;BME280;14780;48.316;-1.050;2023-06-19T05:32:57;98655.75;;;27.16;43.81
18569;BME280;14780;48.316;-1.050;2023-06-19T05:35:42;98655.22;;;27.14;43.94
18569;BME280;14780;48.316;-1.050;2023-06-19T05:38:28;98647.81;;;27.15;43.88
18569;BME280;14780;48.316;-1.050;2023-06-19T05:41:15;98649.72;;;27.14;43.94
18569;BME280;14780;48.316;-1.050;2023-06-19T05:44:00;98649.72;;;27.14;44.06
18569;BME280;14780;48.316;-1.050;2023-06-19T05:46:45;98655.22;;;27.14;44.13
18569;BME280;14780;48.316;-1.050;2023-06-19T05:49:30;98648.91;;;27.14;44.13
18569;BME280;14780;48.316;-1.050;2023-06-19T05:52:15;98655.22;;;27.14;44.16
18569;BME280;14780;48.316;-1.050;2023-06-19T05:54:59;98644.22;;;27.14;44.11
18569;BME280;14780;48.316;-1.050;2023-06-19T05:57:45;98645.31;;;27.13;44.03
18569;BME280;14780;48.316;-1.050;2023-06-19T06:00:30;98641.50;;;27.14;44.18
18569;BME280;14780;48.316;-1.050;2023-06-19T06:03:16;98649.72;;;27.14;44.21
18569;BME280;14780;48.316;-1.050;2023-06-19T06:06:01;98653.31;;;27.15;44.27
18569;BME280;14780;48.316;-1.050;2023-06-19T06:08:49;98661.00;;;27.13;44.36
18569;BME280;14780;48.316;-1.050;2023-06-19T06:11:34;98659.06;;;27.13;44.16
18569;BME280;14780;48.316;-1.050;2023-06-19T06:14:18;98657.44;;;27.12;44.16
18569;BME280;14780;48.316;-1.050;2023-06-19T06:17:03;98663.75;;;27.13;44.35
18569;BME280;14780;48.316;-1.050;2023-06-19T06:19:49;98668.41;;;27.12;44.11
18569;BME280;14780;48.316;-1.050;2023-06-19T06:22:34;98680.03;;;27.09;44.32
18569;BME280;14780;48.316;-1.050;2023-06-19T06:25:19;98687.94;;;27.11;44.26
18569;BME280;14780;48.316;-1.050;2023-06-19T06:28:04;98696.50;;;27.09;44.51
18569;BME280;14780;48.316;-1.050;2023-06-19T06:30:49;98703.06;;;27.08;44.58
18569;BME280;14780;48.316;-1.050;2023-06-19T06:33:34;98698.72;;;27.07;44.54
18569;BME280;14780;48.316;-1.050;2023-06-19T06:36:19;98701.16;;;27.09;44.40
18569;BME280;14780;48.316;-1.050;2023-06-19T06:39:04;98695.47;;;27.05;44.40
18569;BME280;14780;48.316;-1.050;2023-06-19T06:41:48;98697.09;;;27.06;44.60
18569;BME280;14780;48.316;-1.050;2023-06-19T06:44:33;98696.78;;;27.08;44.61
18569;BME280;14780;48.316;-1.050;2023-06-19T06:47:18;98699.25;;;27.09;44.48
18569;BME280;14780;48.316;-1.050;2023-06-19T06:50:02;98706.94;;;27.07;44.61
18569;BME280;14780;48.316;-1.050;2023-06-19T06:52:48;98719.56;;;27.08;44.38
18569;BME280;14780;48.316;-1.050;2023-06-19T06:55:32;98712.16;;;27.09;44.52
18569;BME280;14780;48.316;-1.050;2023-06-19T06:58:17;98715.19;;;27.07;44.58
18569;BME280;14780;48.316;-1.050;2023-06-19T07:01:02;98716.31;;;27.06;44.47
18569;BME280;14780;48.316;-1.050;2023-06-19T07:03:47;98711.31;;;27.08;44.55
18569;BME280;14780;48.316;-1.050;2023-06-19T07:06:31;98704.53;;;27.06;44.73
18569;BME280;14780;48.316;-1.050;2023-06-19T07:09:18;98708.06;;;27.06;44.39
18569;BME280;14780;48.316;-1.050;2023-06-19T07:12:03;98699.31;;;27.04;44.57
18569;BME280;14780;48.316;-1.050;2023-06-19T07:14:52;98698.22;;;27.05;44.62
18569;BME280;14780;48.316;-1.050;2023-06-19T07:17:37;98697.09;;;27.06;44.57
18569;BME280;14780;48.316;-1.050;2023-06-19T07:20:22;98691.59;;;27.06;44.52
18569;BME280;14780;48.316;-1.050;2023-06-19T07:23:07;98699.84;;;27.06;44.83
18569;BME280;14780;48.316;-1.050;2023-06-19T07:25:52;98708.06;;;27.06;44.77
18569;BME280;14780;48.316;-1.050;2023-06-19T07:28:36;98703.69;;;27.05;44.77
18569;BME280;14780;48.316;-1.050;2023-06-19T07:31:22;98708.34;;;27.05;44.63
18569;BME280;14780;48.316;-1.050;2023-06-19T07:34:06;98697.16;;;27.01;44.65
18569;BME280;14780;48.316;-1.050;2023-06-19T07:36:51;98714.75;;;27.00;44.80
18569;BME280;14780;48.316;-1.050;2023-06-19T07:39:36;98713.13;;;26.99;44.63
18569;BME280;14780;48.316;-1.050;2023-06-19T07:42:20;98724.13;;;26.99;44.62
18569;BME280;14780;48.316;-1.050;2023-06-19T07:45:06;98726.88;;;26.99;44.60
18569;BME280;14780;48.316;-1.050;2023-06-19T07:47:57;98727.91;;;27.03;44.88
18569;BME280;14780;48.316;-1.050;2023-06-19T07:50:42;98735.59;;;27.01;44.77
18569;BME280;14780;48.316;-1.050;2023-06-19T07:53:27;98733.47;;;26.98;44.84
18569;BME280;14780;48.316;-1.050;2023-06-19T07:56:12;98732.06;;;27.01;44.87
18569;BME280;14780;48.316;-1.050;2023-06-19T07:58:57;98739.19;;;27.02;44.94
18569;BME280;14780;48.316;-1.050;2023-06-19T08:01:41;98738.88;;;27.03;44.83
18569;BME280;14780;48.316;-1.050;2023-06-19T08:04:26;98747.13;;;27.03;44.90
18569;BME280;14780;48.316;-1.050;2023-06-19T08:07:10;98741.63;;;27.03;44.68
18569;BME280;14780;48.316;-1.050;2023-06-19T08:09:58;98747.13;;;27.03;44.93
18569;BME280;14780;48.316;-1.050;2023-06-19T08:12:44;98737.25;;;27.02;44.94
18569;BME280;14780;48.316;-1.050;2023-06-19T08:15:29;98740.00;;;27.02;44.75
18569;BME280;14780;48.316;-1.050;2023-06-19T08:18:13;98732.06;;;27.01;44.96
18569;BME280;14780;48.316;-1.050;2023-06-19T08:20:59;98736.44;;;27.02;45.01
18569;BME280;14780;48.316;-1.050;2023-06-19T08:23:43;98728.19;;;27.02;44.97
18569;BME280;14780;48.316;-1.050;2023-06-19T08:26:28;98722.41;;;27.03;45.06
18569;BME280;14780;48.316;-1.050;2023-06-19T08:29:13;98722.09;;;27.05;44.87
18569;BME280;14780;48.316;-1.050;2023-06-19T08:31:57;98716.94;;;27.03;45.04
18569;BME280;14780;48.316;-1.050;2023-06-19T08:34:42;98720.47;;;27.04;44.93
18569;BME280;14780;48.316;-1.050;2023-06-19T08:37:27;98718.53;;;27.04;44.92
18569;BME280;14780;48.316;-1.050;2023-06-19T08:40:12;98719.88;;;27.07;44.88
18569;BME280;14780;48.316;-1.050;2023-06-19T08:42:57;98711.94;;;27.05;45.03
18569;BME280;14780;48.316;-1.050;2023-06-19T08:45:42;98721.00;;;27.06;44.89
18569;BME280;14780;48.316;-1.050;2023-06-19T08:48:27;98720.69;;;27.07;44.87
18569;BME280;14780;48.316;-1.050;2023-06-19T08:51:12;98720.69;;;27.07;45.08
18569;BME280;14780;48.316;-1.050;2023-06-19T08:54:03;98720.69;;;27.07;44.93
18569;BME280;14780;48.316;-1.050;2023-06-19T08:56:49;98717.13;;;27.07;45.07
18569;BME280;14780;48.316;-1.050;2023-06-19T08:59:33;98712.44;;;27.07;45.03
18569;BME280;14780;48.316;-1.050;2023-06-19T09:02:18;98712.16;;;27.09;45.08
18569;BME280;14780;48.316;-1.050;2023-06-19T09:05:17;98713.44;;;27.16;44.96
18569;BME280;14780;48.316;-1.050;2023-06-19T09:08:02;98715.41;;;27.11;44.88
18569;BME280;14780;48.316;-1.050;2023-06-19T09:11:02;98727.66;;;27.18;44.83
18569;BME280;14780;48.316;-1.050;2023-06-19T09:13:56;98725.50;;;27.15;45.08
18569;BME280;14780;48.316;-1.050;2023-06-19T09:16:42;98720.09;;;27.10;44.94
18569;BME280;14780;48.316;-1.050;2023-06-19T09:19:27;98732.69;;;27.11;44.94
18569;BME280;14780;48.316;-1.050;2023-06-19T09:22:11;98723.63;;;27.11;45.19
18569;BME280;14780;48.316;-1.050;2023-06-19T09:25:00;98724.97;;;27.13;45.20
18569;BME280;14780;48.316;-1.050;2023-06-19T09:27:46;98719.47;;;27.13;45.02
18569;BME280;14780;48.316;-1.050;2023-06-19T09:30:30;98718.38;;;27.14;45.01
18569;BME280;14780;48.316;-1.050;2023-06-19T09:33:15;98721.66;;;27.16;45.04
18569;BME280;14780;48.316;-1.050;2023-06-19T09:36:01;98710.97;;;27.15;45.02
18569;BME280;14780;48.316;-1.050;2023-06-19T09:38:47;98715.63;;;27.14;45.22
18569;BME280;14780;48.316;-1.050;2023-06-19T09:41:33;98717.25;;;27.15;45.11
18569;BME280;14780;48.316;-1.050;2023-06-19T09:44:19;98717.25;;;27.15;44.98
18569;BME280;14780;48.316;-1.050;2023-06-19T09:47:22;98718.59;;;27.18;45.19
18569;BME280;14780;48.316;-1.050;2023-06-19T09:50:15;98718.91;;;27.16;45.08
18569;BME280;14780;48.316;-1.050;2023-06-19T09:53:01;98726.84;;;27.18;45.19
18569;BME280;14780;48.316;-1.050;2023-06-19T09:55:50;98720.53;;;27.17;45.07
18569;BME280;14780;48.316;-1.050;2023-06-19T09:58:35;98715.06;;;27.17;45.01
18569;BME280;14780;48.316;-1.050;2023-06-19T10:01:23;98725.22;;;27.17;45.25
18569;BME280;14780;48.316;-1.050;2023-06-19T10:04:09;98712.31;;;27.17;45.00
18569;BME280;14780;48.316;-1.050;2023-06-19T10:06:55;98712.81;;;27.19;45.24
18569;BME280;14780;48.316;-1.050;2023-06-19T10:09:42;98707.31;;;27.19;45.15
18569;BME280;14780;48.316;-1.050;2023-06-19T10:12:46;98708.72;;;27.30;44.91
18569;BME280;14780;48.316;-1.050;2023-06-19T10:15:31;98705.06;;;27.21;45.08
18569;BME280;14780;48.316;-1.050;2023-06-19T10:18:17;98708.94;;;27.20;45.12
18569;BME280;14780;48.316;-1.050;2023-06-19T10:21:02;98710.06;;;27.19;45.17
18569;BME280;14780;48.316;-1.050;2023-06-19T10:23:58;98708.84;;;27.25;44.90
18569;BME280;14780;48.316;-1.050;2023-06-19T10:27:01;98719.53;;;27.27;44.96
18569;BME280;14780;48.316;-1.050;2023-06-19T10:29:51;98714.72;;;27.19;44.89
18569;BME280;14780;48.316;-1.050;2023-06-19T10:32:36;98718.81;;;27.21;45.02
18569;BME280;14780;48.316;-1.050;2023-06-19T10:35:21;98716.06;;;27.21;45.00
18569;BME280;14780;48.316;-1.050;2023-06-19T10:38:06;98707.31;;;27.19;45.00
18569;BME280;14780;48.316;-1.050;2023-06-19T10:40:50;98716.88;;;27.22;45.11
18569;BME280;14780;48.316;-1.050;2023-06-19T10:43:35;98716.25;;;27.25;44.95
18569;BME280;14780;48.316;-1.050;2023-06-19T10:46:22;98705.00;;;27.26;44.99
18569;BME280;14780;48.316;-1.050;2023-06-19T10:49:08;98696.44;;;27.28;45.26
18569;BME280;14780;48.316;-1.050;2023-06-19T10:51:55;98699.41;;;27.31;45.34
18569;BME280;14780;48.316;-1.050;2023-06-19T10:54:43;98693.28;;;27.34;45.22
18569;BME280;14780;48.316;-1.050;2023-06-19T10:57:31;98683.63;;;27.37;45.38
18569;BME280;14780;48.316;-1.050;2023-06-19T11:00:28;98683.75;;;27.45;45.03
18569;BME280;14780;48.316;-1.050;2023-06-19T11:03:14;98679.97;;;27.41;45.16
18569;BME280;14780;48.316;-1.050;2023-06-19T11:05:58;98676.59;;;27.44;45.36
18569;BME280;14780;48.316;-1.050;2023-06-19T11:08:51;98681.19;;;27.49;45.15
18569;BME280;14780;48.316;-1.050;2023-06-19T11:11:41;98676.00;;;27.47;45.28
18569;BME280;14780;48.316;-1.050;2023-06-19T11:14:29;98673.75;;;27.49;45.13
18569;BME280;14780;48.316;-1.050;2023-06-19T11:17:15;98668.75;;;27.51;45.45
18569;BME280;14780;48.316;-1.050;2023-06-19T11:20:00;98669.28;;;27.53;45.23
18569;BME280;14780;48.316;-1.050;2023-06-19T11:22:45;98658.50;;;27.57;45.37
18569;BME280;14780;48.316;-1.050;2023-06-19T11:25:38;98662.75;;;27.63;45.23
18569;BME280;14780;48.316;-1.050;2023-06-19T11:28:26;98654.00;;;27.61;45.46
18569;BME280;14780;48.316;-1.050;2023-06-19T11:31:11;98656.94;;;27.64;45.33
18569;BME280;14780;48.316;-1.050;2023-06-19T11:34:00;98660.72;;;27.68;45.49
18569;BME280;14780;48.316;-1.050;2023-06-19T11:36:46;98646.66;;;27.70;45.34
18569;BME280;14780;48.316;-1.050;2023-06-19T11:39:31;98637.31;;;27.71;45.51
18569;BME280;14780;48.316;-1.050;2023-06-19T11:42:16;98647.97;;;27.72;45.37
18569;BME280;14780;48.316;-1.050;2023-06-19T11:45:04;98644.63;;;27.75;45.37
18569;BME280;14780;48.316;-1.050;2023-06-19T11:47:51;98642.41;;;27.77;45.23
18569;BME280;14780;48.316;-1.050;2023-06-19T11:50:35;98625.91;;;27.77;45.42
18569;BME280;14780;48.316;-1.050;2023-06-19T11:53:22;98620.91;;;27.79;45.34
18569;BME280;14780;48.316;-1.050;2023-06-19T11:56:06;98617.56;;;27.82;45.55
18569;BME280;14780;48.316;-1.050;2023-06-19T11:58:51;98613.03;;;27.86;45.42
18569;BME280;14780;48.316;-1.050;2023-06-19T12:01:37;98616.81;;;27.90;45.47
18569;BME280;14780;48.316;-1.050;2023-06-19T12:04:22;98607.34;;;27.96;45.55
18569;BME280;14780;48.316;-1.050;2023-06-19T12:07:07;98604.78;;;28.00;45.37
18569;BME280;14780;48.316;-1.050;2023-06-19T12:09:51;98598.94;;;28.01;45.58
18569;BME280;14780;48.316;-1.050;2023-06-19T12:12:37;98593.44;;;28.01;45.50
18569;BME280;14780;48.316;-1.050;2023-06-19T12:15:26;98595.91;;;28.03;45.38
18569;BME280;14780;48.316;-1.050;2023-06-19T12:18:11;98592.84;;;28.04;45.34
18569;BME280;14780;48.316;-1.050;2023-06-19T12:20:57;98588.97;;;28.05;45.23
18569;BME280;14780;48.316;-1.050;2023-06-19T12:23:41;98583.47;;;28.05;45.30
18569;BME280;14780;48.316;-1.050;2023-06-19T12:26:26;98590.09;;;28.04;45.19
18569;BME280;14780;48.316;-1.050;2023-06-19T12:29:10;98578.25;;;28.04;45.29
18569;BME280;14780;48.316;-1.050;2023-06-19T12:32:00;98574.91;;;28.07;45.49
18569;BME280;14780;48.316;-1.050;2023-06-19T12:34:46;98573.09;;;28.24;44.88
18569;BME280;14780;48.316;-1.050;2023-06-19T12:37:32;98565.84;;;28.06;45.25
18569;BME280;14780;48.316;-1.050;2023-06-19T12:40:17;98568.59;;;28.06;45.02
18569;BME280;14780;48.316;-1.050;2023-06-19T12:43:02;98558.41;;;28.07;45.26
18569;BME280;14780;48.316;-1.050;2023-06-19T12:45:47;98560.81;;;28.08;45.01
18569;BME280;14780;48.316;-1.050;2023-06-19T12:48:33;98553.88;;;28.11;45.00
18569;BME280;14780;48.316;-1.050;2023-06-19T12:51:18;98556.34;;;28.12;45.02
18569;BME280;14780;48.316;-1.050;2023-06-19T12:54:03;98559.56;;;28.14;45.04
18569;BME280;14780;48.316;-1.050;2023-06-19T12:56:48;98554.06;;;28.14;44.88
18569;BME280;14780;48.316;-1.050;2023-06-19T12:59:33;98554.91;;;28.15;44.91
18569;BME280;14780;48.316;-1.050;2023-06-19T13:02:18;98550.19;;;28.15;45.07
18569;BME280;14780;48.316;-1.050;2023-06-19T13:05:02;98553.47;;;28.17;45.07
18569;BME280;14780;48.316;-1.050;2023-06-19T13:07:47;98550.09;;;28.20;44.88
18569;BME280;14780;48.316;-1.050;2023-06-19T13:10:32;98537.94;;;28.21;44.95
18569;BME280;14780;48.316;-1.050;2023-06-19T13:13:17;98547.22;;;28.25;44.93
18569;BME280;14780;48.316;-1.050;2023-06-19T13:16:01;98542.19;;;28.27;44.95
18569;BME280;14780;48.316;-1.050;2023-06-19T13:18:46;98554.19;;;28.31;44.83
18569;BME280;14780;48.316;-1.050;2023-06-19T13:21:30;98547.59;;;28.32;44.98
18569;BME280;14780;48.316;-1.050;2023-06-19T13:24:15;98545.63;;;28.33;44.87
18569;BME280;14780;48.316;-1.050;2023-06-19T13:27:00;98541.75;;;28.34;44.85
18569;BME280;14780;48.316;-1.050;2023-06-19T13:29:45;98547.25;;;28.34;44.85
18569;BME280;14780;48.316;-1.050;2023-06-19T13:32:30;98548.88;;;28.35;44.67
18569;BME280;14780;48.316;-1.050;2023-06-19T13:35:14;98551.34;;;28.36;44.71
18569;BME280;14780;48.316;-1.050;2023-06-19T13:37:59;98545.31;;;28.34;44.56
18569;BME280;14780;48.316;-1.050;2023-06-19T13:40:44;98541.75;;;28.34;44.55
18569;BME280;14780;48.316;-1.050;2023-06-19T13:43:29;98543.69;;;28.33;44.67
18569;BME280;14780;48.316;-1.050;2023-06-19T13:46:14;98546.44;;;28.33;44.59
18569;BME280;14780;48.316;-1.050;2023-06-19T13:48:59;98538.19;;;28.33;44.44
18569;BME280;14780;48.316;-1.050;2023-06-19T13:51:45;98533.81;;;28.32;44.45
18569;BME280;14780;48.316;-1.050;2023-06-19T13:54:30;98533.81;;;28.32;44.50
18569;BME280;14780;48.316;-1.050;2023-06-19T13:57:15;98533.81;;;28.32;44.47
18569;BME280;14780;48.316;-1.050;2023-06-19T13:59:59;98542.06;;;28.32;44.66
18569;BME280;14780;48.316;-1.050;2023-06-19T14:02:44;98523.31;;;28.34;44.31
18569;BME280;14780;48.316;-1.050;2023-06-19T14:05:28;98519.44;;;28.35;44.56
18569;BME280;14780;48.316;-1.050;2023-06-19T14:08:13;98513.66;;;28.37;44.40
18569;BME280;14780;48.316;-1.050;2023-06-19T14:10:57;98503.44;;;28.37;44.55
18569;BME280;14780;48.316;-1.050;2023-06-19T14:13:42;98501.19;;;28.39;44.46
18569;BME280;14780;48.316;-1.050;2023-06-19T14:16:27;98497.94;;;28.37;44.65
18569;BME280;14780;48.316;-1.050;2023-06-19T14:19:12;98499.56;;;28.38;44.42
18569;BME280;14780;48.316;-1.050;2023-06-19T14:21:57;98495.69;;;28.39;44.55
18569;BME280;14780;48.316;-1.050;2023-06-19T14:24:42;98489.06;;;28.40;44.39
18569;BME280;14780;48.316;-1.050;2023-06-19T14:27:27;98482.44;;;28.41;44.34
18569;BME280;14780;48.316;-1.050;2023-06-19T14:30:12;98476.28;;;28.44;44.19